Historyczne dane pomiarowe

Dodano dane terminowe – wersja testowa.

Dane z okresu 1951-2019

Wersja bazy: 1.34 [2019-03-16, lista zmian], aktualizacja planowana na 2019-04-15

Dane meteo z obszaru Polski uzyskane na podstawie danych udostępnionych przez Instytut Meteorologii i Gospodarki Wodnej – Państwowy Instytut Badawczy.

 

Wybierz Datę:    

       

TemperaturaWilgotnośćWiatrCiśnienieOpadyŚniegCzas trwania zjawisk
 Stacja t tx tn tng RH VA  wxwx mslp ppp RRR   cm mm wxwxwxwxwxwxwx
2015-09-11 12.1 18.9 5.9 1.5 71.5- 6.7 3.0---- 0.0------------
2015-09-12 12.9 16.7 10.5 8.9 69.0- 8.0 3.3---- 0.1------------
2015-09-13 14.0 18.9 11.2 8.3 81.0- 5.0 2.7---- 0.0------------
2015-09-14 13.9 19.4 9.0 4.0 82.3- 4.7 3.3---- 0.5------------
2015-09-15 18.1 23.5 14.4 13.0 81.8- 6.7 1.7---- 1.0------------
2015-09-16 20.9 27.0 16.7 14.4 74.5- 7.0 2.7---- 0.1------------
2015-09-17 22.7 29.0 19.2 17.7 67.5- 2.7 2.0---- 0.0------------
2015-09-18 18.1 22.1 15.3 12.2 73.5- 4.0 3.0---- 4.5------------
2015-09-19 15.7 21.4 13.2 10.0 84.8- 6.7 1.0---- 0.0------------
2015-09-20 11.1 14.6 7.5 5.5 93.8- 8.0 1.0---- 5.0------------
2015-09-21 11.1 13.7 10.0 9.5 89.5- 7.7 2.0---- 0.0------------
2015-09-22 10.0 17.7 2.2 0.8 81.3- 7.7 2.0---- 0.0------------
2015-09-23 14.4 22.8 7.8 5.0 81.5- 4.0 1.3---- 2.0------------
2015-09-24 16.2 24.9 9.9 6.4 88.3- 5.7 0.7---- 3.4------------
2015-09-25 16.7 19.2 15.3 11.9 96.8- 8.0 2.3---- 23.5------------
2015-09-26 13.2 16.6 11.4 11.4 92.3- 8.0 3.0---- 8.2------------
2015-09-27 11.1 16.0 9.0 5.9 83.3- 4.3 2.7---- 0.0------------
2015-09-28 8.9 15.3 4.0 0.1 88.3- 5.3 1.7---- 0.0------------
2015-09-29 8.0 13.8 2.5 -0.5 82.0- 5.3 2.3---- 0.0------------
2015-09-30 7.4 15.0 3.0 -1.0 85.0- 1.7 1.3---- 0.0------------
2015-10-01 5.9 15.0 -1.2 -3.4 79.3- 2.0 1.7---- 0.0------------
2015-10-02 8.8 16.6 3.0 0.0 77.0- 5.0 2.3---- 0.0------------
2015-10-03 8.2 18.7 1.1 -2.1 80.5- 2.7 2.0---- 0.0------------
2015-10-04 10.7 20.9 3.7 0.1 87.5- 4.0 1.3---- 0.0------------
2015-10-05 12.0 20.3 6.4 3.0 89.5- 6.3 0.7---- 0.0------------
2015-10-06 10.4 14.3 7.5 3.2 92.5- 5.3 2.0---- 0.0------------
2015-10-07 2.4 9.7 -2.0 -5.7 69.8- 0.0 3.0---- 0.0------------
2015-10-08 -0.3 9.2 -6.0 -8.4 77.0- 0.0 2.0---- 0.0------------
2015-10-09 -1.6 8.4 -6.5-10.9 72.5- 3.0 0.7---- 0.0------------
2015-10-10 -2.1 8.2 -8.2-11.1 83.5- 0.0 0.7---- 0.0------------
85.0 ms

 

Źródłem pochodzenia danych jest Instytut Meteorologii i Gospodarki Wodnej – Państwowy Instytut Badawczy. Dane Instytutu Meteorologii i Gospodarki Wodnej – Państwowego Instytutu Badawczego zostały przetworzone.

Dane źródłowe można odnaleźć na stronie https://dane.imgw.pl